sensor_id;sensor_type;location;lat;lon;timestamp;P1;durP1;ratioP1;P2;durP2;ratioP2
32786;SDS011;19139;49.372;8.580;2023-03-09T00:01:42;4.00;;;2.43;;
32786;SDS011;19139;49.372;8.580;2023-03-09T00:04:13;4.03;;;2.27;;
32786;SDS011;19139;49.372;8.580;2023-03-09T00:06:42;3.17;;;2.20;;
32786;SDS011;19139;49.372;8.580;2023-03-09T00:09:09;3.23;;;1.80;;
32786;SDS011;19139;49.372;8.580;2023-03-09T00:11:41;3.57;;;1.93;;
32786;SDS011;19139;49.372;8.580;2023-03-09T00:14:09;3.83;;;2.27;;
32786;SDS011;19139;49.372;8.580;2023-03-09T00:16:36;3.27;;;2.27;;
32786;SDS011;19139;49.372;8.580;2023-03-09T00:19:04;2.93;;;2.17;;
32786;SDS011;19139;49.372;8.580;2023-03-09T00:21:31;2.97;;;2.20;;
32786;SDS011;19139;49.372;8.580;2023-03-09T00:24:02;2.93;;;2.03;;
32786;SDS011;19139;49.372;8.580;2023-03-09T00:26:58;2.93;;;1.83;;
32786;SDS011;19139;49.372;8.580;2023-03-09T00:29:27;3.00;;;2.17;;
32786;SDS011;19139;49.372;8.580;2023-03-09T00:31:56;3.67;;;1.93;;
32786;SDS011;19139;49.372;8.580;2023-03-09T00:34:23;3.23;;;1.97;;
32786;SDS011;19139;49.372;8.580;2023-03-09T00:36:49;3.00;;;2.13;;
32786;SDS011;19139;49.372;8.580;2023-03-09T00:39:17;3.43;;;2.17;;
32786;SDS011;19139;49.372;8.580;2023-03-09T00:41:43;3.53;;;2.20;;
32786;SDS011;19139;49.372;8.580;2023-03-09T00:44:11;3.10;;;1.93;;
32786;SDS011;19139;49.372;8.580;2023-03-09T00:46:43;2.50;;;1.70;;
32786;SDS011;19139;49.372;8.580;2023-03-09T00:49:11;2.73;;;1.80;;
32786;SDS011;19139;49.372;8.580;2023-03-09T00:51:43;3.00;;;2.30;;
32786;SDS011;19139;49.372;8.580;2023-03-09T00:54:11;2.83;;;1.90;;
32786;SDS011;19139;49.372;8.580;2023-03-09T00:56:43;2.67;;;1.60;;
32786;SDS011;19139;49.372;8.580;2023-03-09T00:59:10;2.93;;;1.70;;
32786;SDS011;19139;49.372;8.580;2023-03-09T01:01:36;3.27;;;1.70;;
32786;SDS011;19139;49.372;8.580;2023-03-09T01:04:03;3.17;;;1.80;;
32786;SDS011;19139;49.372;8.580;2023-03-09T01:06:30;2.60;;;1.80;;
32786;SDS011;19139;49.372;8.580;2023-03-09T01:09:02;2.87;;;1.70;;
32786;SDS011;19139;49.372;8.580;2023-03-09T01:11:33;2.87;;;1.90;;
32786;SDS011;19139;49.372;8.580;2023-03-09T01:14:00;3.57;;;1.93;;
32786;SDS011;19139;49.372;8.580;2023-03-09T01:16:27;2.27;;;1.87;;
32786;SDS011;19139;49.372;8.580;2023-03-09T01:18:53;3.60;;;1.73;;
32786;SDS011;19139;49.372;8.580;2023-03-09T01:21:20;4.63;;;2.10;;
32786;SDS011;19139;49.372;8.580;2023-03-09T01:23:52;2.50;;;1.63;;
32786;SDS011;19139;49.372;8.580;2023-03-09T01:26:23;3.00;;;2.23;;
32786;SDS011;19139;49.372;8.580;2023-03-09T01:28:50;3.70;;;1.80;;
32786;SDS011;19139;49.372;8.580;2023-03-09T01:31:22;1.90;;;1.47;;
32786;SDS011;19139;49.372;8.580;2023-03-09T01:33:53;2.43;;;1.63;;
32786;SDS011;19139;49.372;8.580;2023-03-09T01:36:20;2.30;;;1.50;;
32786;SDS011;19139;49.372;8.580;2023-03-09T01:38:46;2.90;;;2.00;;
32786;SDS011;19139;49.372;8.580;2023-03-09T01:41:14;2.80;;;1.70;;
32786;SDS011;19139;49.372;8.580;2023-03-09T01:43:43;3.30;;;1.87;;
32786;SDS011;19139;49.372;8.580;2023-03-09T01:49:07;5.03;;;1.53;;
32786;SDS011;19139;49.372;8.580;2023-03-09T01:57:27;2.33;;;1.60;;
32786;SDS011;19139;49.372;8.580;2023-03-09T02:00:06;2.53;;;1.40;;
32786;SDS011;19139;49.372;8.580;2023-03-09T02:02:43;2.43;;;1.50;;
32786;SDS011;19139;49.372;8.580;2023-03-09T02:05:40;1.77;;;1.57;;
32786;SDS011;19139;49.372;8.580;2023-03-09T02:08:13;2.17;;;1.50;;
32786;SDS011;19139;49.372;8.580;2023-03-09T02:10:44;2.60;;;1.53;;
32786;SDS011;19139;49.372;8.580;2023-03-09T02:13:20;2.50;;;1.97;;
32786;SDS011;19139;49.372;8.580;2023-03-09T02:15:55;2.97;;;1.63;;
32786;SDS011;19139;49.372;8.580;2023-03-09T02:18:27;1.70;;;1.23;;
32786;SDS011;19139;49.372;8.580;2023-03-09T02:21:04;2.73;;;1.77;;
32786;SDS011;19139;49.372;8.580;2023-03-09T02:26:55;2.23;;;1.60;;
32786;SDS011;19139;49.372;8.580;2023-03-09T02:29:33;2.63;;;1.60;;
32786;SDS011;19139;49.372;8.580;2023-03-09T02:32:05;1.53;;;1.40;;
32786;SDS011;19139;49.372;8.580;2023-03-09T02:34:37;1.83;;;1.20;;
32786;SDS011;19139;49.372;8.580;2023-03-09T02:39:56;2.07;;;1.67;;
32786;SDS011;19139;49.372;8.580;2023-03-09T02:42:30;2.07;;;1.27;;
32786;SDS011;19139;49.372;8.580;2023-03-09T02:45:02;2.63;;;1.53;;
32786;SDS011;19139;49.372;8.580;2023-03-09T02:47:29;1.87;;;1.50;;
32786;SDS011;19139;49.372;8.580;2023-03-09T02:50:00;1.93;;;1.30;;
32786;SDS011;19139;49.372;8.580;2023-03-09T02:52:32;2.10;;;1.73;;
32786;SDS011;19139;49.372;8.580;2023-03-09T02:55:04;2.43;;;1.50;;
32786;SDS011;19139;49.372;8.580;2023-03-09T02:57:36;1.53;;;1.20;;
32786;SDS011;19139;49.372;8.580;2023-03-09T03:00:08;2.27;;;1.27;;
32786;SDS011;19139;49.372;8.580;2023-03-09T03:02:41;2.17;;;1.37;;
32786;SDS011;19139;49.372;8.580;2023-03-09T03:05:13;1.93;;;1.30;;
32786;SDS011;19139;49.372;8.580;2023-03-09T03:07:45;2.00;;;1.50;;
32786;SDS011;19139;49.372;8.580;2023-03-09T03:10:17;2.47;;;1.50;;
32786;SDS011;19139;49.372;8.580;2023-03-09T03:12:48;2.70;;;1.37;;
32786;SDS011;19139;49.372;8.580;2023-03-09T03:15:20;2.40;;;1.23;;
32786;SDS011;19139;49.372;8.580;2023-03-09T03:17:51;2.70;;;1.23;;
32786;SDS011;19139;49.372;8.580;2023-03-09T03:20:23;1.60;;;0.90;;
32786;SDS011;19139;49.372;8.580;2023-03-09T03:22:49;2.57;;;1.27;;
32786;SDS011;19139;49.372;8.580;2023-03-09T03:25:21;1.77;;;1.40;;
32786;SDS011;19139;49.372;8.580;2023-03-09T03:27:52;2.57;;;1.50;;
32786;SDS011;19139;49.372;8.580;2023-03-09T03:30:19;1.40;;;1.00;;
32786;SDS011;19139;49.372;8.580;2023-03-09T03:32:51;1.77;;;1.07;;
32786;SDS011;19139;49.372;8.580;2023-03-09T03:35:19;1.50;;;1.20;;
32786;SDS011;19139;49.372;8.580;2023-03-09T03:37:51;1.33;;;1.10;;
32786;SDS011;19139;49.372;8.580;2023-03-09T03:40:22;1.70;;;1.03;;
32786;SDS011;19139;49.372;8.580;2023-03-09T03:42:49;1.90;;;1.20;;
32786;SDS011;19139;49.372;8.580;2023-03-09T03:45:20;1.33;;;1.00;;
32786;SDS011;19139;49.372;8.580;2023-03-09T03:47:52;1.87;;;1.53;;
32786;SDS011;19139;49.372;8.580;2023-03-09T03:50:23;1.97;;;1.00;;
32786;SDS011;19139;49.372;8.580;2023-03-09T03:52:50;2.17;;;1.13;;
32786;SDS011;19139;49.372;8.580;2023-03-09T03:55:22;1.83;;;1.20;;
32786;SDS011;19139;49.372;8.580;2023-03-09T03:57:53;2.03;;;1.30;;
32786;SDS011;19139;49.372;8.580;2023-03-09T04:00:20;1.33;;;1.03;;
32786;SDS011;19139;49.372;8.580;2023-03-09T04:02:53;2.30;;;1.20;;
32786;SDS011;19139;49.372;8.580;2023-03-09T04:05:20;2.43;;;1.00;;
32786;SDS011;19139;49.372;8.580;2023-03-09T04:07:52;1.30;;;1.00;;
32786;SDS011;19139;49.372;8.580;2023-03-09T04:10:23;1.17;;;1.00;;
32786;SDS011;19139;49.372;8.580;2023-03-09T04:12:50;2.60;;;1.20;;
32786;SDS011;19139;49.372;8.580;2023-03-09T04:15:22;1.83;;;1.10;;
32786;SDS011;19139;49.372;8.580;2023-03-09T04:17:49;1.30;;;1.00;;
32786;SDS011;19139;49.372;8.580;2023-03-09T04:20:20;1.20;;;0.90;;
32786;SDS011;19139;49.372;8.580;2023-03-09T04:22:52;2.60;;;1.20;;
32786;SDS011;19139;49.372;8.580;2023-03-09T04:25:23;1.70;;;1.03;;
32786;SDS011;19139;49.372;8.580;2023-03-09T04:27:50;1.83;;;1.10;;
32786;SDS011;19139;49.372;8.580;2023-03-09T04:30:23;1.57;;;1.13;;
32786;SDS011;19139;49.372;8.580;2023-03-09T04:32:49;1.67;;;1.20;;
32786;SDS011;19139;49.372;8.580;2023-03-09T04:35:21;1.20;;;1.10;;
32786;SDS011;19139;49.372;8.580;2023-03-09T04:37:53;1.70;;;1.20;;
32786;SDS011;19139;49.372;8.580;2023-03-09T04:40:20;1.03;;;0.80;;
32786;SDS011;19139;49.372;8.580;2023-03-09T04:42:52;1.23;;;0.90;;
32786;SDS011;19139;49.372;8.580;2023-03-09T04:45:23;1.67;;;1.00;;
32786;SDS011;19139;49.372;8.580;2023-03-09T04:47:50;0.87;;;0.67;;
32786;SDS011;19139;49.372;8.580;2023-03-09T04:50:21;1.43;;;0.90;;
32786;SDS011;19139;49.372;8.580;2023-03-09T04:52:53;1.43;;;0.73;;
32786;SDS011;19139;49.372;8.580;2023-03-09T04:55:26;1.30;;;1.00;;
32786;SDS011;19139;49.372;8.580;2023-03-09T04:57:58;1.37;;;0.80;;
32786;SDS011;19139;49.372;8.580;2023-03-09T05:00:29;1.30;;;0.83;;
32786;SDS011;19139;49.372;8.580;2023-03-09T05:03:01;1.40;;;1.17;;
32786;SDS011;19139;49.372;8.580;2023-03-09T05:05:33;1.27;;;0.93;;
32786;SDS011;19139;49.372;8.580;2023-03-09T05:07:59;1.77;;;0.90;;
32786;SDS011;19139;49.372;8.580;2023-03-09T05:10:31;1.23;;;0.90;;
32786;SDS011;19139;49.372;8.580;2023-03-09T05:13:03;2.10;;;1.13;;
32786;SDS011;19139;49.372;8.580;2023-03-09T05:15:29;1.50;;;0.90;;
32786;SDS011;19139;49.372;8.580;2023-03-09T05:18:01;2.77;;;1.30;;
32786;SDS011;19139;49.372;8.580;2023-03-09T05:20:32;1.60;;;0.70;;
32786;SDS011;19139;49.372;8.580;2023-03-09T05:23:00;1.93;;;1.03;;
32786;SDS011;19139;49.372;8.580;2023-03-09T05:25:31;0.83;;;0.70;;
32786;SDS011;19139;49.372;8.580;2023-03-09T05:28:03;1.70;;;0.90;;
32786;SDS011;19139;49.372;8.580;2023-03-09T05:30:35;1.30;;;0.80;;
32786;SDS011;19139;49.372;8.580;2023-03-09T05:33:07;1.80;;;1.00;;
32786;SDS011;19139;49.372;8.580;2023-03-09T05:35:38;1.40;;;0.67;;
32786;SDS011;19139;49.372;8.580;2023-03-09T05:38:10;1.37;;;0.80;;
32786;SDS011;19139;49.372;8.580;2023-03-09T05:40:41;1.10;;;0.77;;
32786;SDS011;19139;49.372;8.580;2023-03-09T05:43:09;1.77;;;1.07;;
32786;SDS011;19139;49.372;8.580;2023-03-09T05:45:42;1.00;;;0.60;;
32786;SDS011;19139;49.372;8.580;2023-03-09T05:48:09;1.17;;;0.90;;
32786;SDS011;19139;49.372;8.580;2023-03-09T05:50:41;1.40;;;1.03;;
32786;SDS011;19139;49.372;8.580;2023-03-09T05:53:12;1.97;;;1.00;;
32786;SDS011;19139;49.372;8.580;2023-03-09T05:55:39;1.63;;;1.10;;
32786;SDS011;19139;49.372;8.580;2023-03-09T05:58:10;1.43;;;0.90;;
32786;SDS011;19139;49.372;8.580;2023-03-09T06:00:41;1.97;;;0.67;;
32786;SDS011;19139;49.372;8.580;2023-03-09T06:03:13;2.00;;;0.70;;
32786;SDS011;19139;49.372;8.580;2023-03-09T06:05:40;1.67;;;1.33;;
32786;SDS011;19139;49.372;8.580;2023-03-09T06:08:11;1.40;;;0.70;;
32786;SDS011;19139;49.372;8.580;2023-03-09T06:10:43;0.83;;;0.70;;
32786;SDS011;19139;49.372;8.580;2023-03-09T06:13:09;2.07;;;1.07;;
32786;SDS011;19139;49.372;8.580;2023-03-09T06:15:41;1.47;;;0.93;;
32786;SDS011;19139;49.372;8.580;2023-03-09T06:18:13;1.83;;;0.70;;
32786;SDS011;19139;49.372;8.580;2023-03-09T06:20:40;1.10;;;0.80;;
32786;SDS011;19139;49.372;8.580;2023-03-09T06:23:11;1.70;;;0.90;;
32786;SDS011;19139;49.372;8.580;2023-03-09T06:25:43;1.73;;;0.90;;
32786;SDS011;19139;49.372;8.580;2023-03-09T06:28:15;1.93;;;0.93;;
32786;SDS011;19139;49.372;8.580;2023-03-09T06:30:46;1.63;;;1.30;;
32786;SDS011;19139;49.372;8.580;2023-03-09T06:33:18;2.60;;;1.30;;
32786;SDS011;19139;49.372;8.580;2023-03-09T06:35:49;1.90;;;0.97;;
32786;SDS011;19139;49.372;8.580;2023-03-09T06:38:22;3.17;;;1.10;;
32786;SDS011;19139;49.372;8.580;2023-03-09T06:40:52;6.30;;;1.17;;
32786;SDS011;19139;49.372;8.580;2023-03-09T06:43:20;5.07;;;1.30;;
32786;SDS011;19139;49.372;8.580;2023-03-09T06:45:51;2.53;;;1.37;;
32786;SDS011;19139;49.372;8.580;2023-03-09T06:48:23;3.10;;;1.07;;
32786;SDS011;19139;49.372;8.580;2023-03-09T06:50:54;4.73;;;1.10;;
32786;SDS011;19139;49.372;8.580;2023-03-09T06:53:26;5.53;;;1.17;;
32786;SDS011;19139;49.372;8.580;2023-03-09T06:55:58;3.83;;;1.20;;
32786;SDS011;19139;49.372;8.580;2023-03-09T06:58:26;5.87;;;1.30;;
32786;SDS011;19139;49.372;8.580;2023-03-09T07:00:53;3.07;;;1.10;;
32786;SDS011;19139;49.372;8.580;2023-03-09T07:03:20;2.77;;;1.50;;
32786;SDS011;19139;49.372;8.580;2023-03-09T07:05:48;4.60;;;1.00;;
32786;SDS011;19139;49.372;8.580;2023-03-09T07:08:15;4.13;;;1.00;;
32786;SDS011;19139;49.372;8.580;2023-03-09T07:10:42;3.33;;;1.63;;
32786;SDS011;19139;49.372;8.580;2023-03-09T07:13:14;3.13;;;1.10;;
32786;SDS011;19139;49.372;8.580;2023-03-09T07:15:41;2.70;;;1.07;;
32786;SDS011;19139;49.372;8.580;2023-03-09T07:18:08;3.40;;;1.03;;
32786;SDS011;19139;49.372;8.580;2023-03-09T07:20:39;2.87;;;0.97;;
32786;SDS011;19139;49.372;8.580;2023-03-09T07:23:07;5.50;;;1.37;;
32786;SDS011;19139;49.372;8.580;2023-03-09T07:25:35;2.20;;;0.90;;
32786;SDS011;19139;49.372;8.580;2023-03-09T07:28:04;2.93;;;0.70;;
32786;SDS011;19139;49.372;8.580;2023-03-09T07:30:35;4.63;;;1.40;;
32786;SDS011;19139;49.372;8.580;2023-03-09T07:33:03;2.10;;;0.70;;
32786;SDS011;19139;49.372;8.580;2023-03-09T07:35:30;3.10;;;1.00;;
32786;SDS011;19139;49.372;8.580;2023-03-09T07:37:56;2.87;;;1.10;;
32786;SDS011;19139;49.372;8.580;2023-03-09T07:40:23;2.27;;;1.13;;
32786;SDS011;19139;49.372;8.580;2023-03-09T07:42:50;3.63;;;0.80;;
32786;SDS011;19139;49.372;8.580;2023-03-09T07:45:19;2.70;;;0.77;;
32786;SDS011;19139;49.372;8.580;2023-03-09T07:47:47;1.17;;;0.70;;
32786;SDS011;19139;49.372;8.580;2023-03-09T07:50:14;2.07;;;1.00;;
32786;SDS011;19139;49.372;8.580;2023-03-09T07:52:41;1.13;;;0.80;;
32786;SDS011;19139;49.372;8.580;2023-03-09T07:55:13;2.47;;;1.03;;
32786;SDS011;19139;49.372;8.580;2023-03-09T07:57:40;1.97;;;0.90;;
32786;SDS011;19139;49.372;8.580;2023-03-09T08:00:13;2.13;;;0.70;;
32786;SDS011;19139;49.372;8.580;2023-03-09T08:02:46;4.13;;;1.17;;
32786;SDS011;19139;49.372;8.580;2023-03-09T08:05:13;1.20;;;1.10;;
32786;SDS011;19139;49.372;8.580;2023-03-09T08:07:41;1.97;;;0.97;;
32786;SDS011;19139;49.372;8.580;2023-03-09T08:10:12;2.83;;;1.20;;
32786;SDS011;19139;49.372;8.580;2023-03-09T08:12:41;3.03;;;0.90;;
32786;SDS011;19139;49.372;8.580;2023-03-09T08:15:13;2.53;;;1.00;;
32786;SDS011;19139;49.372;8.580;2023-03-09T08:17:40;1.53;;;1.00;;
32786;SDS011;19139;49.372;8.580;2023-03-09T08:20:07;2.20;;;0.90;;
32786;SDS011;19139;49.372;8.580;2023-03-09T08:22:35;1.50;;;0.77;;
32786;SDS011;19139;49.372;8.580;2023-03-09T08:25:04;2.00;;;1.00;;
32786;SDS011;19139;49.372;8.580;2023-03-09T08:27:41;2.77;;;0.73;;
32786;SDS011;19139;49.372;8.580;2023-03-09T08:30:10;2.70;;;0.90;;
32786;SDS011;19139;49.372;8.580;2023-03-09T08:32:43;2.57;;;0.87;;
32786;SDS011;19139;49.372;8.580;2023-03-09T08:35:12;2.27;;;0.93;;
32786;SDS011;19139;49.372;8.580;2023-03-09T08:37:44;2.00;;;1.03;;
32786;SDS011;19139;49.372;8.580;2023-03-09T08:40:12;2.37;;;0.80;;
32786;SDS011;19139;49.372;8.580;2023-03-09T08:42:39;1.73;;;0.63;;
32786;SDS011;19139;49.372;8.580;2023-03-09T08:45:06;1.50;;;0.73;;
32786;SDS011;19139;49.372;8.580;2023-03-09T08:47:33;2.83;;;1.10;;
32786;SDS011;19139;49.372;8.580;2023-03-09T08:50:00;1.37;;;0.80;;
32786;SDS011;19139;49.372;8.580;2023-03-09T08:52:32;1.83;;;0.70;;
32786;SDS011;19139;49.372;8.580;2023-03-09T08:55:01;2.27;;;0.87;;
32786;SDS011;19139;49.372;8.580;2023-03-09T08:57:33;2.40;;;1.33;;
32786;SDS011;19139;49.372;8.580;2023-03-09T09:00:00;1.87;;;0.80;;
32786;SDS011;19139;49.372;8.580;2023-03-09T09:02:27;1.50;;;0.70;;
32786;SDS011;19139;49.372;8.580;2023-03-09T09:04:54;1.87;;;1.00;;
32786;SDS011;19139;49.372;8.580;2023-03-09T09:07:21;2.83;;;1.17;;
32786;SDS011;19139;49.372;8.580;2023-03-09T09:09:53;2.87;;;1.20;;
32786;SDS011;19139;49.372;8.580;2023-03-09T09:12:19;2.23;;;0.97;;
32786;SDS011;19139;49.372;8.580;2023-03-09T09:14:46;1.43;;;0.80;;
32786;SDS011;19139;49.372;8.580;2023-03-09T09:17:13;3.30;;;1.00;;
32786;SDS011;19139;49.372;8.580;2023-03-09T09:19:40;2.57;;;0.83;;
32786;SDS011;19139;49.372;8.580;2023-03-09T09:22:11;2.17;;;0.67;;
32786;SDS011;19139;49.372;8.580;2023-03-09T09:24:43;3.20;;;1.10;;
32786;SDS011;19139;49.372;8.580;2023-03-09T09:27:10;3.70;;;1.67;;
32786;SDS011;19139;49.372;8.580;2023-03-09T09:29:36;1.93;;;1.33;;
32786;SDS011;19139;49.372;8.580;2023-03-09T09:32:04;1.10;;;0.70;;
32786;SDS011;19139;49.372;8.580;2023-03-09T09:34:32;1.43;;;0.90;;
32786;SDS011;19139;49.372;8.580;2023-03-09T09:36:59;1.53;;;0.73;;
32786;SDS011;19139;49.372;8.580;2023-03-09T09:39:27;2.27;;;0.87;;
32786;SDS011;19139;49.372;8.580;2023-03-09T09:41:55;1.87;;;0.90;;
32786;SDS011;19139;49.372;8.580;2023-03-09T09:44:25;1.83;;;1.13;;
32786;SDS011;19139;49.372;8.580;2023-03-09T09:46:55;1.30;;;0.80;;
32786;SDS011;19139;49.372;8.580;2023-03-09T09:49:27;2.47;;;0.87;;
32786;SDS011;19139;49.372;8.580;2023-03-09T09:52:14;1.10;;;0.90;;
32786;SDS011;19139;49.372;8.580;2023-03-09T09:57:49;1.20;;;0.60;;
32786;SDS011;19139;49.372;8.580;2023-03-09T10:03:10;2.33;;;0.90;;
32786;SDS011;19139;49.372;8.580;2023-03-09T10:05:58;2.47;;;0.67;;
32786;SDS011;19139;49.372;8.580;2023-03-09T10:19:40;2.37;;;0.80;;
32786;SDS011;19139;49.372;8.580;2023-03-09T10:30:19;2.07;;;0.83;;
32786;SDS011;19139;49.372;8.580;2023-03-09T10:32:52;1.90;;;0.83;;
32786;SDS011;19139;49.372;8.580;2023-03-09T10:35:21;0.87;;;0.60;;
32786;SDS011;19139;49.372;8.580;2023-03-09T10:37:54;2.53;;;0.93;;
32786;SDS011;19139;49.372;8.580;2023-03-09T10:40:26;1.80;;;0.80;;
32786;SDS011;19139;49.372;8.580;2023-03-09T10:43:01;1.97;;;0.90;;
32786;SDS011;19139;49.372;8.580;2023-03-09T10:45:30;1.03;;;0.60;;
32786;SDS011;19139;49.372;8.580;2023-03-09T10:48:01;1.13;;;0.63;;
32786;SDS011;19139;49.372;8.580;2023-03-09T10:50:39;1.87;;;0.70;;
32786;SDS011;19139;49.372;8.580;2023-03-09T10:56:02;1.07;;;0.67;;
32786;SDS011;19139;49.372;8.580;2023-03-09T10:58:37;1.37;;;0.67;;
32786;SDS011;19139;49.372;8.580;2023-03-09T11:03:39;3.40;;;0.83;;
32786;SDS011;19139;49.372;8.580;2023-03-09T11:06:19;2.00;;;0.90;;
32786;SDS011;19139;49.372;8.580;2023-03-09T11:09:00;1.63;;;0.70;;
32786;SDS011;19139;49.372;8.580;2023-03-09T11:11:42;3.30;;;0.70;;
32786;SDS011;19139;49.372;8.580;2023-03-09T11:14:45;2.20;;;0.80;;
32786;SDS011;19139;49.372;8.580;2023-03-09T11:22:38;0.70;;;0.50;;
32786;SDS011;19139;49.372;8.580;2023-03-09T11:25:12;1.50;;;0.70;;
32786;SDS011;19139;49.372;8.580;2023-03-09T11:27:53;3.80;;;1.40;;
32786;SDS011;19139;49.372;8.580;2023-03-09T11:30:29;1.60;;;0.60;;
32786;SDS011;19139;49.372;8.580;2023-03-09T11:33:01;1.93;;;0.70;;
32786;SDS011;19139;49.372;8.580;2023-03-09T11:35:28;1.07;;;0.80;;
32786;SDS011;19139;49.372;8.580;2023-03-09T11:38:00;1.83;;;0.80;;
32786;SDS011;19139;49.372;8.580;2023-03-09T11:40:29;1.53;;;0.70;;
32786;SDS011;19139;49.372;8.580;2023-03-09T11:43:01;1.87;;;0.60;;
32786;SDS011;19139;49.372;8.580;2023-03-09T11:45:39;1.47;;;0.63;;
32786;SDS011;19139;49.372;8.580;2023-03-09T11:48:21;1.33;;;0.80;;
32786;SDS011;19139;49.372;8.580;2023-03-09T11:53:40;1.37;;;0.80;;
32786;SDS011;19139;49.372;8.580;2023-03-09T11:58:50;1.30;;;0.70;;
32786;SDS011;19139;49.372;8.580;2023-03-09T12:01:24;1.20;;;0.50;;
32786;SDS011;19139;49.372;8.580;2023-03-09T12:04:04;1.40;;;0.67;;
32786;SDS011;19139;49.372;8.580;2023-03-09T12:09:03;2.90;;;0.80;;
32786;SDS011;19139;49.372;8.580;2023-03-09T12:11:40;2.60;;;0.80;;
32786;SDS011;19139;49.372;8.580;2023-03-09T12:14:14;1.43;;;0.50;;
32786;SDS011;19139;49.372;8.580;2023-03-09T12:16:50;1.10;;;0.50;;
32786;SDS011;19139;49.372;8.580;2023-03-09T12:19:21;1.50;;;0.50;;
32786;SDS011;19139;49.372;8.580;2023-03-09T12:21:59;1.23;;;0.60;;
32786;SDS011;19139;49.372;8.580;2023-03-09T12:24:39;1.13;;;0.60;;
32786;SDS011;19139;49.372;8.580;2023-03-09T12:27:18;1.40;;;0.83;;
32786;SDS011;19139;49.372;8.580;2023-03-09T12:29:47;0.83;;;0.43;;
32786;SDS011;19139;49.372;8.580;2023-03-09T12:34:51;2.00;;;1.10;;
32786;SDS011;19139;49.372;8.580;2023-03-09T12:40:21;2.33;;;0.60;;
32786;SDS011;19139;49.372;8.580;2023-03-09T12:42:53;0.80;;;0.50;;
32786;SDS011;19139;49.372;8.580;2023-03-09T12:45:29;0.90;;;0.60;;
32786;SDS011;19139;49.372;8.580;2023-03-09T12:53:22;0.93;;;0.60;;
32786;SDS011;19139;49.372;8.580;2023-03-09T12:55:51;1.30;;;0.53;;
32786;SDS011;19139;49.372;8.580;2023-03-09T13:00:53;0.97;;;0.70;;
32786;SDS011;19139;49.372;8.580;2023-03-09T13:03:24;1.90;;;0.70;;
32786;SDS011;19139;49.372;8.580;2023-03-09T13:05:52;0.60;;;0.50;;
32786;SDS011;19139;49.372;8.580;2023-03-09T13:13:51;1.47;;;0.63;;
32786;SDS011;19139;49.372;8.580;2023-03-09T13:29:57;1.00;;;0.40;;
32786;SDS011;19139;49.372;8.580;2023-03-09T13:32:28;1.10;;;0.50;;
32786;SDS011;19139;49.372;8.580;2023-03-09T13:34:58;1.27;;;0.57;;
32786;SDS011;19139;49.372;8.580;2023-03-09T13:37:32;0.70;;;0.40;;
32786;SDS011;19139;49.372;8.580;2023-03-09T13:43:04;2.37;;;1.00;;
32786;SDS011;19139;49.372;8.580;2023-03-09T13:45:40;1.90;;;0.60;;
32786;SDS011;19139;49.372;8.580;2023-03-09T13:48:19;1.97;;;0.70;;
32786;SDS011;19139;49.372;8.580;2023-03-09T13:50:51;0.50;;;0.40;;
32786;SDS011;19139;49.372;8.580;2023-03-09T13:58:38;1.40;;;0.70;;
32786;SDS011;19139;49.372;8.580;2023-03-09T14:01:18;1.13;;;0.40;;
32786;SDS011;19139;49.372;8.580;2023-03-09T14:03:47;3.23;;;0.87;;
32786;SDS011;19139;49.372;8.580;2023-03-09T14:06:30;1.50;;;0.70;;
32786;SDS011;19139;49.372;8.580;2023-03-09T14:11:53;1.20;;;0.50;;
32786;SDS011;19139;49.372;8.580;2023-03-09T14:14:20;1.73;;;0.60;;
32786;SDS011;19139;49.372;8.580;2023-03-09T14:16:50;1.13;;;0.40;;
32786;SDS011;19139;49.372;8.580;2023-03-09T14:19:25;2.47;;;0.70;;
32786;SDS011;19139;49.372;8.580;2023-03-09T14:22:01;1.27;;;0.60;;
32786;SDS011;19139;49.372;8.580;2023-03-09T14:24:34;0.67;;;0.57;;
32786;SDS011;19139;49.372;8.580;2023-03-09T14:27:12;2.03;;;0.60;;
32786;SDS011;19139;49.372;8.580;2023-03-09T14:29:51;1.00;;;0.50;;
32786;SDS011;19139;49.372;8.580;2023-03-09T14:32:30;1.80;;;0.70;;
32786;SDS011;19139;49.372;8.580;2023-03-09T14:37:52;0.73;;;0.40;;
32786;SDS011;19139;49.372;8.580;2023-03-09T14:40:24;0.70;;;0.30;;
32786;SDS011;19139;49.372;8.580;2023-03-09T14:46:18;1.20;;;0.50;;
32786;SDS011;19139;49.372;8.580;2023-03-09T14:49:00;1.53;;;0.53;;
32786;SDS011;19139;49.372;8.580;2023-03-09T14:51:35;1.00;;;0.30;;
32786;SDS011;19139;49.372;8.580;2023-03-09T14:56:32;0.97;;;0.47;;
32786;SDS011;19139;49.372;8.580;2023-03-09T14:59:09;1.63;;;0.47;;
32786;SDS011;19139;49.372;8.580;2023-03-09T15:01:43;0.93;;;0.30;;
32786;SDS011;19139;49.372;8.580;2023-03-09T15:04:25;1.97;;;0.60;;
32786;SDS011;19139;49.372;8.580;2023-03-09T15:06:53;1.37;;;0.53;;
32786;SDS011;19139;49.372;8.580;2023-03-09T15:09:20;1.53;;;0.50;;
32786;SDS011;19139;49.372;8.580;2023-03-09T15:11:52;1.50;;;0.60;;
32786;SDS011;19139;49.372;8.580;2023-03-09T15:17:01;1.20;;;0.50;;
32786;SDS011;19139;49.372;8.580;2023-03-09T15:19:30;1.70;;;0.57;;
32786;SDS011;19139;49.372;8.580;2023-03-09T15:22:01;0.80;;;0.40;;
32786;SDS011;19139;49.372;8.580;2023-03-09T15:24:29;1.00;;;0.40;;
32786;SDS011;19139;49.372;8.580;2023-03-09T15:27:01;1.03;;;0.40;;
32786;SDS011;19139;49.372;8.580;2023-03-09T15:29:33;1.10;;;0.60;;
32786;SDS011;19139;49.372;8.580;2023-03-09T15:32:04;0.93;;;0.30;;
32786;SDS011;19139;49.372;8.580;2023-03-09T15:34:39;1.40;;;0.40;;
32786;SDS011;19139;49.372;8.580;2023-03-09T15:37:14;0.60;;;0.50;;
32786;SDS011;19139;49.372;8.580;2023-03-09T15:39:45;1.20;;;0.60;;
32786;SDS011;19139;49.372;8.580;2023-03-09T15:42:17;0.57;;;0.40;;
32786;SDS011;19139;49.372;8.580;2023-03-09T15:44:50;1.27;;;0.50;;
32786;SDS011;19139;49.372;8.580;2023-03-09T15:47:21;1.07;;;0.50;;
32786;SDS011;19139;49.372;8.580;2023-03-09T15:49:53;1.73;;;0.60;;
32786;SDS011;19139;49.372;8.580;2023-03-09T15:52:24;0.77;;;0.40;;
32786;SDS011;19139;49.372;8.580;2023-03-09T15:54:56;1.30;;;0.60;;
32786;SDS011;19139;49.372;8.580;2023-03-09T15:57:27;2.07;;;0.67;;
32786;SDS011;19139;49.372;8.580;2023-03-09T15:59:59;1.13;;;0.40;;
32786;SDS011;19139;49.372;8.580;2023-03-09T16:02:31;1.00;;;0.57;;
32786;SDS011;19139;49.372;8.580;2023-03-09T16:05:02;0.70;;;0.60;;
32786;SDS011;19139;49.372;8.580;2023-03-09T16:07:34;0.80;;;0.50;;
32786;SDS011;19139;49.372;8.580;2023-03-09T16:10:06;1.17;;;0.40;;
32786;SDS011;19139;49.372;8.580;2023-03-09T16:12:37;1.17;;;0.60;;
32786;SDS011;19139;49.372;8.580;2023-03-09T16:15:09;1.20;;;0.40;;
32786;SDS011;19139;49.372;8.580;2023-03-09T16:17:41;1.53;;;0.50;;
32786;SDS011;19139;49.372;8.580;2023-03-09T16:20:13;1.40;;;0.60;;
32786;SDS011;19139;49.372;8.580;2023-03-09T16:22:48;1.43;;;0.47;;
32786;SDS011;19139;49.372;8.580;2023-03-09T16:25:20;1.10;;;0.60;;
32786;SDS011;19139;49.372;8.580;2023-03-09T16:27:51;1.30;;;0.50;;
32786;SDS011;19139;49.372;8.580;2023-03-09T16:30:23;1.47;;;0.50;;
32786;SDS011;19139;49.372;8.580;2023-03-09T16:32:54;1.17;;;0.47;;
32786;SDS011;19139;49.372;8.580;2023-03-09T16:35:28;1.13;;;0.43;;
32786;SDS011;19139;49.372;8.580;2023-03-09T16:37:59;1.00;;;0.40;;
32786;SDS011;19139;49.372;8.580;2023-03-09T16:40:30;1.33;;;0.70;;
32786;SDS011;19139;49.372;8.580;2023-03-09T16:43:04;1.00;;;0.50;;
32786;SDS011;19139;49.372;8.580;2023-03-09T16:45:36;1.33;;;0.50;;
32786;SDS011;19139;49.372;8.580;2023-03-09T16:48:20;1.40;;;0.53;;
32786;SDS011;19139;49.372;8.580;2023-03-09T16:50:53;0.70;;;0.40;;
32786;SDS011;19139;49.372;8.580;2023-03-09T16:53:26;1.00;;;0.40;;
32786;SDS011;19139;49.372;8.580;2023-03-09T16:56:00;0.77;;;0.50;;
32786;SDS011;19139;49.372;8.580;2023-03-09T16:58:37;1.00;;;0.40;;
32786;SDS011;19139;49.372;8.580;2023-03-09T17:01:15;1.40;;;0.60;;
32786;SDS011;19139;49.372;8.580;2023-03-09T17:03:48;1.40;;;0.50;;
32786;SDS011;19139;49.372;8.580;2023-03-09T17:06:20;1.27;;;0.60;;